Time;durP1;ratioP1;P1;durP2;ratioP2;P2;SDS_P1;SDS_P2;PMS_P1;PMS_P2;Temp;Humidity;BMP_temperature;BMP_pressure;BME280_temperature;BME280_humidity;BME280_pressure;Samples;Min_cycle;Max_cycle;Signal;HPM_P1;HPM_P2
2023/03/29 00:01:40;;;;;;;0.37;0.30;;;;;;;4.20;46.16;100756.84;5286730;26;34006;-87
2023/03/29 00:04:12;;;;;;;0.03;0.03;;;;;;;4.17;46.20;100767.28;5287326;26;32175;-87
2023/03/29 00:06:40;;;;;;;0.35;0.35;;;;;;;4.21;46.23;100768.16;5323858;26;34126;-87
2023/03/29 00:09:09;;;;;;;0.00;0.00;;;;;;;4.20;46.65;100762.06;5305465;26;33721;-85
2023/03/29 00:11:38;;;;;;;0.00;0.00;;;;;;;4.27;46.54;100762.91;5286652;26;33051;-85
2023/03/29 00:14:06;;;;;;;0.00;0.00;;;;;;;4.05;47.00;100760.38;5323366;26;33505;-86
2023/03/29 00:16:34;;;;;;;0.00;0.00;;;;;;;3.91;47.14;100763.88;5304697;26;34186;-86
2023/03/29 00:19:03;;;;;;;0.00;0.00;;;;;;;4.00;46.91;100756.91;5286806;26;32478;-86
2023/03/29 00:21:31;;;;;;;0.00;0.00;;;;;;;3.95;47.36;100757.78;5286642;26;33441;-86
2023/03/29 00:23:59;;;;;;;0.00;0.00;;;;;;;3.99;47.14;100756.91;5286357;26;32463;-86
2023/03/29 00:26:27;;;;;;;0.28;0.28;;;;;;;3.79;47.48;100760.38;5286430;26;33302;-86
2023/03/29 00:28:55;;;;;;;0.00;0.00;;;;;;;3.92;47.34;100749.94;5304847;26;34342;-85
2023/03/29 00:31:23;;;;;;;0.00;0.00;;;;;;;3.96;47.11;100756.91;5322940;26;34101;-86
2023/03/29 00:33:51;;;;;;;0.00;0.00;;;;;;;3.83;47.15;100764.75;5304948;26;33374;-86
2023/03/29 00:36:20;;;;;;;0.00;0.00;;;;;;;3.83;47.24;100746.44;5269961;26;950898;-86
2023/03/29 00:38:51;;;;;;;0.00;0.00;;;;;;;3.85;47.53;100749.94;5302377;26;32587;-86
2023/03/29 00:41:21;;;;;;;0.10;0.10;;;;;;;3.56;48.73;100752.59;5302290;26;33927;-86
2023/03/29 00:43:59;;;;;;;0.45;0.45;;;;;;;3.66;48.44;100750.84;5321242;26;35281;-86
2023/03/29 00:46:29;;;;;;;0.40;0.40;;;;;;;3.53;48.52;100749.97;5284521;26;32755;-87
2023/03/29 00:49:02;;;;;;;0.17;0.17;;;;;;;3.23;48.90;100742.09;5304625;26;34435;-87
2023/03/29 00:51:33;;;;;;;0.00;0.00;;;;;;;3.52;48.32;100744.75;5305016;26;33201;-87
2023/03/29 00:54:05;;;;;;;0.00;0.00;;;;;;;3.56;48.36;100743.84;5286934;26;33162;-86
2023/03/29 00:56:38;;;;;;;0.00;0.00;;;;;;;3.41;48.72;100746.47;5323623;26;34860;-86
2023/03/29 00:59:12;;;;;;;0.03;0.03;;;;;;;3.43;48.50;100745.59;5342041;26;33741;-86
2023/03/29 01:01:53;;;;;;;0.00;0.00;;;;;;;3.50;48.00;100743.84;5286617;26;34417;-86
2023/03/29 01:04:35;;;;;;;0.10;0.10;;;;;;;3.42;47.99;100732.53;5305898;26;33655;-87
2023/03/29 01:07:20;;;;;;;0.00;0.00;;;;;;;3.47;47.68;100726.47;5286870;26;33275;-85
2023/03/29 01:09:54;;;;;;;0.20;0.20;;;;;;;3.47;47.66;100725.59;5342744;26;33531;-85
2023/03/29 01:12:28;;;;;;;0.17;0.17;;;;;;;3.49;46.61;100723.84;5304963;26;33256;-85
2023/03/29 01:15:25;;;;;;;3.90;1.60;;;;;;;3.60;45.43;100716.88;5304878;26;35472;-85
2023/03/29 01:17:56;;;;;;;0.13;0.13;;;;;;;3.66;45.08;100714.28;5303304;26;32974;-85
2023/03/29 01:20:42;;;;;;;;;;;;;;;3.52;45.36;100708.19;5287937;26;33197;-85
2023/03/29 01:23:25;;;;;;;;;;;;;;;3.61;45.28;100700.34;5323390;26;33777;-85
2023/03/29 01:26:15;;;;;;;3.30;1.90;;;;;;;3.50;45.83;100704.69;5287088;26;34259;-86
2023/03/29 01:28:51;;;;;;;0.85;0.85;;;;;;;3.49;45.59;100713.41;5341294;26;33491;-86
2023/03/29 01:31:23;;;;;;;1.00;0.90;;;;;;;3.44;45.40;100709.91;5286984;26;32943;-86
2023/03/29 01:34:00;;;;;;;0.63;0.50;;;;;;;3.44;45.17;100700.34;5304883;26;33645;-86
2023/03/29 01:36:36;;;;;;;0.60;0.60;;;;;;;3.52;45.04;100708.19;5322711;26;33984;-85
2023/03/29 01:39:05;;;;;;;0.00;0.00;;;;;;;3.44;45.14;100702.97;5323669;26;34045;-85
2023/03/29 01:41:46;;;;;;;0.03;0.03;;;;;;;3.40;46.44;100705.56;5324337;26;34442;-85
2023/03/29 01:44:20;;;;;;;0.15;0.15;;;;;;;3.57;45.01;100704.69;5323978;26;34397;-85
2023/03/29 01:46:59;;;;;;;0.90;0.90;;;;;;;3.39;46.11;100706.44;5306196;26;33990;-86
2023/03/29 01:49:34;;;;;;;2.12;1.92;;;;;;;3.31;46.70;100704.69;5324308;26;33868;-86
2023/03/29 01:52:08;;;;;;;0.62;0.62;;;;;;;3.32;47.44;100706.44;5287755;26;32282;-87
2023/03/29 01:54:40;;;;;;;0.17;0.10;;;;;;;3.45;46.68;100707.31;5305062;26;33697;-86
2023/03/29 01:57:09;;;;;;;0.10;0.10;;;;;;;3.25;47.59;100709.03;5306098;26;33939;-87
2023/03/29 01:59:40;;;;;;;0.75;0.62;;;;;;;3.10;48.22;100709.91;5305667;26;34519;-87
2023/03/29 02:02:13;;;;;;;8.77;3.45;;;;;;;3.14;48.43;100709.03;5306603;26;33495;-87
2023/03/29 02:04:50;;;;;;;5.78;2.65;;;;;;;3.10;49.11;100709.91;5287746;26;34109;-87
2023/03/29 02:07:29;;;;;;;8.40;3.40;;;;;;;3.28;47.82;100709.94;5288044;26;32984;-86
2023/03/29 02:09:58;;;;;;;0.37;0.37;;;;;;;3.10;47.81;100706.44;5287688;26;33318;-86
2023/03/29 02:12:26;;;;;;;1.40;1.30;;;;;;;3.03;48.42;100705.53;5306108;26;34051;-86
2023/03/29 02:14:56;;;;;;;1.60;1.48;;;;;;;3.07;48.76;100702.06;5286914;26;32922;-85
2023/03/29 02:17:26;;;;;;;1.90;1.75;;;;;;;3.21;47.97;100700.34;5305752;26;35021;-86
2023/03/29 02:19:59;;;;;;;6.60;2.05;;;;;;;2.79;49.36;100709.84;5269068;26;33144;-86
2023/03/29 02:22:36;;;;;;;5.70;1.62;;;;;;;2.96;48.87;100709.88;5287952;26;32630;-86
2023/03/29 02:25:08;;;;;;;1.27;0.40;;;;;;;2.75;48.82;100707.22;5288499;26;32485;-86
2023/03/29 02:27:36;;;;;;;0.35;0.35;;;;;;;2.76;48.56;100707.25;5305678;26;33122;-86
2023/03/29 02:30:06;;;;;;;1.08;1.08;;;;;;;2.78;48.71;100702.88;5305667;26;34188;-86
2023/03/29 02:32:59;;;;;;;0.57;0.47;;;;;;;2.51;49.42;100713.22;5287411;26;32595;-86
2023/03/29 02:35:33;;;;;;;;;;;;;;;2.51;49.46;100708.88;5323783;26;32371;-88
2023/03/29 02:38:05;;;;;;;0.00;0.00;;;;;;;2.34;49.53;100709.69;5305609;26;33215;-86
2023/03/29 02:40:33;;;;;;;5.03;2.33;;;;;;;2.48;49.42;100715.84;5287219;26;32964;-87
2023/03/29 02:43:05;;;;;;;1.87;1.70;;;;;;;2.57;49.26;100713.28;5287842;26;32511;-88
2023/03/29 02:45:35;;;;;;;0.52;0.52;;;;;;;2.25;50.23;100720.94;5288051;26;32914;-88
2023/03/29 02:48:10;;;;;;;2.00;1.90;;;;;;;2.38;50.17;100727.09;5305929;26;33250;-88
2023/03/29 02:50:39;;;;;;;2.95;1.33;;;;;;;2.39;50.01;100729.69;5287438;26;32827;-85
2023/03/29 02:53:16;;;;;;;0.55;0.55;;;;;;;2.50;49.71;100728.00;5305758;26;33283;-86
2023/03/29 02:55:45;;;;;;;4.37;2.95;;;;;;;2.49;49.67;100725.41;5305871;26;34132;-86
2023/03/29 02:58:14;;;;;;;1.37;1.37;;;;;;;2.56;49.32;100729.75;5306086;26;34062;-86
2023/03/29 03:00:44;;;;;;;1.30;1.30;;;;;;;2.31;49.77;100732.25;5305340;26;33305;-86
2023/03/29 03:03:14;;;;;;;2.12;1.87;;;;;;;2.40;49.64;100728.81;5305398;26;33650;-86
2023/03/29 03:05:43;;;;;;;6.85;2.05;;;;;;;2.38;49.63;100737.53;5288032;26;32258;-86
2023/03/29 03:08:12;;;;;;;1.05;1.05;;;;;;;2.40;50.26;100735.78;5287720;26;33420;-85
2023/03/29 03:10:41;;;;;;;11.70;6.32;;;;;;;2.38;50.04;100732.31;5287333;26;33159;-87
2023/03/29 03:13:11;;;;;;;2.08;1.98;;;;;;;2.22;50.37;100742.63;5287607;26;33652;-87
2023/03/29 03:15:41;;;;;;;7.57;4.37;;;;;;;2.33;50.11;100739.19;5305857;26;33953;-88
2023/03/29 03:18:11;;;;;;;0.70;0.70;;;;;;;2.19;51.00;100741.78;5324231;26;34364;-88
2023/03/29 03:20:40;;;;;;;5.55;2.87;;;;;;;2.33;50.80;100737.50;5323278;26;33091;-87
2023/03/29 03:23:09;;;;;;;0.55;0.55;;;;;;;2.36;50.58;100739.22;5323616;26;33451;-87
2023/03/29 03:25:39;;;;;;;2.37;2.15;;;;;;;2.37;50.64;100743.56;5305057;26;33759;-87
2023/03/29 03:28:10;;;;;;;1.52;1.42;;;;;;;2.36;51.04;100745.31;5286919;26;32689;-88
2023/03/29 03:30:39;;;;;;;0.00;0.00;;;;;;;2.37;50.86;100747.03;5304966;26;33664;-87
2023/03/29 03:33:08;;;;;;;0.00;0.00;;;;;;;2.30;50.86;100745.28;5305712;26;33842;-87
2023/03/29 03:35:39;;;;;;;1.87;1.65;;;;;;;2.39;50.41;100739.25;5305196;26;32315;-87
2023/03/29 03:38:09;;;;;;;0.52;0.52;;;;;;;2.38;50.25;100745.34;5305347;26;33306;-88
2023/03/29 03:40:41;;;;;;;0.50;0.50;;;;;;;2.31;50.42;100745.28;5305996;26;33395;-86
2023/03/29 03:43:11;;;;;;;1.05;1.05;;;;;;;2.15;50.97;100755.63;5323372;26;33503;-86
2023/03/29 03:45:41;;;;;;;2.03;1.83;;;;;;;2.07;51.96;100752.97;5323998;26;33836;-87
2023/03/29 03:48:11;;;;;;;3.80;2.20;;;;;;;2.12;52.01;100755.59;5288455;26;33248;-87
2023/03/29 03:50:39;;;;;;;0.45;0.45;;;;;;;2.22;51.67;100753.06;5287801;26;33769;-87
2023/03/29 03:53:10;;;;;;;1.35;1.25;;;;;;;2.15;52.17;100763.47;5306442;26;34284;-87
2023/03/29 03:55:52;;;;;;;8.40;1.98;;;;;;;2.25;51.80;100765.25;5307464;26;32582;-88
2023/03/29 03:58:21;;;;;;;0.55;0.55;;;;;;;2.27;51.46;100761.75;5288067;26;32666;-87
2023/03/29 04:00:53;;;;;;;0.10;0.10;;;;;;;1.86;52.21;100765.87;5288960;26;33372;-88
2023/03/29 04:03:24;;;;;;;0.47;0.47;;;;;;;1.90;51.93;100760.69;5289378;26;33627;-87
2023/03/29 04:05:53;;;;;;;0.10;0.10;;;;;;;1.95;52.03;100760.72;5306317;26;32827;-87
2023/03/29 04:08:21;;;;;;;0.52;0.52;;;;;;;1.96;52.51;100768.53;5305438;26;32561;-85
2023/03/29 04:10:54;;;;;;;0.37;0.37;;;;;;;2.18;51.79;100756.50;5305827;26;32690;-85
2023/03/29 04:13:23;;;;;;;0.30;0.30;;;;;;;2.17;51.47;100762.59;5323749;26;34397;-85
2023/03/29 04:15:59;;;;;;;0.73;0.73;;;;;;;2.11;51.49;100765.16;5306240;26;33045;-84
2023/03/29 04:18:29;;;;;;;1.55;1.05;;;;;;;1.83;52.29;100758.03;5287246;26;33139;-86
2023/03/29 04:20:58;;;;;;;0.20;0.20;;;;;;;2.14;51.52;100754.78;5304718;26;33738;-85
2023/03/29 04:23:34;;;;;;;0.15;0.15;;;;;;;2.44;50.42;100747.97;5324160;26;35338;-86
2023/03/29 04:26:04;;;;;;;0.00;0.00;;;;;;;2.41;50.55;100750.53;5323209;26;32675;-85
2023/03/29 04:28:34;;;;;;;0.13;0.13;;;;;;;1.88;52.27;100759.78;5287106;26;34407;-86
2023/03/29 04:31:05;;;;;;;0.90;0.82;;;;;;;1.86;53.14;100752.84;5305916;26;34192;-86
2023/03/29 04:33:34;;;;;;;0.47;0.47;;;;;;;1.90;52.93;100755.50;5287332;26;33604;-86
2023/03/29 04:36:08;;;;;;;3.30;1.65;;;;;;;1.93;53.02;100770.25;5324084;26;34618;-86
2023/03/29 04:38:36;;;;;;;0.20;0.20;;;;;;;2.37;51.23;100761.81;5287252;26;32818;-86
2023/03/29 04:41:07;;;;;;;0.62;0.40;;;;;;;2.52;50.51;100769.75;5286833;26;33068;-85
2023/03/29 04:43:38;;;;;;;1.65;1.17;;;;;;;2.49;50.59;100769.72;5323435;26;33260;-86
2023/03/29 04:46:10;;;;;;;0.20;0.20;;;;;;;2.33;51.13;100775.69;5324018;26;34214;-85
2023/03/29 04:48:46;;;;;;;;;;;;;;;2.28;51.46;100773.97;5305501;26;33209;-86
2023/03/29 04:51:23;;;;;;;2.53;1.35;;;;;;;2.42;51.11;100779.25;5323111;26;33092;-86
2023/03/29 04:53:52;;;;;;;1.60;1.12;;;;;;;2.40;51.13;100773.13;5305062;26;32859;-85
2023/03/29 04:56:25;;;;;;;1.70;1.60;;;;;;;2.48;50.93;100781.00;5322354;26;32453;-85
2023/03/29 04:58:57;;;;;;;2.12;2.03;;;;;;;2.39;51.25;100780.97;5322552;26;32730;-86
2023/03/29 05:01:38;;;;;;;0.00;0.00;;;;;;;2.56;50.42;100774.97;5321506;26;34092;-86
2023/03/29 05:04:12;;;;;;;5.18;2.55;;;;;;;2.56;50.28;100779.28;5286667;26;33009;-85
2023/03/29 05:06:44;;;;;;;0.47;0.47;;;;;;;2.45;50.70;100775.78;5287803;26;33772;-85
2023/03/29 05:09:12;;;;;;;8.02;3.95;;;;;;;2.36;50.93;100775.72;5286948;26;32951;-85
2023/03/29 05:11:42;;;;;;;0.40;0.40;;;;;;;2.31;50.99;100778.31;5323116;26;33756;-86
2023/03/29 05:14:12;;;;;;;0.70;0.70;;;;;;;2.38;50.92;100774.00;5325271;26;33640;-85
2023/03/29 05:16:45;;;;;;;3.00;2.12;;;;;;;2.45;50.52;100780.97;5325613;26;33119;-84
2023/03/29 05:19:12;;;;;;;0.00;0.00;;;;;;;2.59;50.47;100771.50;5288721;26;33224;-85
2023/03/29 05:21:50;;;;;;;0.00;0.00;;;;;;;2.66;49.98;100760.22;5323366;26;35000;-85
2023/03/29 05:24:21;;;;;;;0.60;0.60;;;;;;;2.62;50.14;100766.28;5323282;26;32932;-86
2023/03/29 05:26:53;;;;;;;3.08;2.25;;;;;;;2.65;50.48;100766.28;5305580;26;34266;-85
2023/03/29 05:29:23;;;;;;;0.28;0.28;;;;;;;2.78;50.03;100768.09;5287093;26;32310;-85
2023/03/29 05:31:56;;;;;;;2.90;1.90;;;;;;;2.81;50.12;100762.87;5289082;26;34945;-86
2023/03/29 05:34:30;;;;;;;0.43;0.43;;;;;;;2.83;49.95;100763.75;5322782;26;33300;-85
2023/03/29 05:37:03;;;;;;;0.35;0.35;;;;;;;2.98;49.93;100767.28;5304399;26;33569;-84
2023/03/29 05:39:40;;;;;;;0.95;0.95;;;;;;;3.15;50.05;100754.28;5342765;26;34736;-85
2023/03/29 05:42:11;;;;;;;2.22;2.12;;;;;;;2.99;50.75;100764.69;5304773;26;34776;-86
2023/03/29 05:44:47;;;;;;;0.95;0.60;;;;;;;3.18;50.03;100768.22;5307128;26;35032;-87
2023/03/29 05:47:16;;;;;;;1.85;1.75;;;;;;;3.10;50.02;100772.53;5286380;26;33842;-86
2023/03/29 05:49:50;;;;;;;2.70;2.60;;;;;;;3.14;50.22;100768.19;5323187;26;34770;-86
2023/03/29 05:52:21;;;;;;;0.47;0.47;;;;;;;3.12;50.77;100775.13;5323545;26;34540;-86
2023/03/29 05:54:50;;;;;;;0.30;0.30;;;;;;;3.02;51.39;100779.47;5285910;26;33007;-87
2023/03/29 05:57:19;;;;;;;0.25;0.25;;;;;;;3.38;50.68;100778.69;5286139;26;34115;-85
2023/03/29 05:59:49;;;;;;;0.32;0.32;;;;;;;3.41;50.44;100777.78;5304170;26;33551;-86
2023/03/29 06:02:20;;;;;;;1.02;1.00;;;;;;;3.63;49.01;100774.34;5304680;26;33911;-87
2023/03/29 06:04:51;;;;;;;0.30;0.30;;;;;;;3.43;49.70;100781.28;5304575;26;33763;-87
2023/03/29 06:07:30;;;;;;;0.70;0.52;;;;;;;3.56;49.51;100783.91;5304499;26;33469;-86
2023/03/29 06:10:03;;;;;;;0.62;0.62;;;;;;;3.60;49.79;100780.41;5304948;26;34489;-87
2023/03/29 06:12:36;;;;;;;0.15;0.15;;;;;;;3.70;49.82;100786.50;5304120;26;34267;-84
2023/03/29 06:17:44;;;;;;;1.40;1.23;;;;;;;4.05;49.33;100788.25;5287036;26;32876;-86
2023/03/29 06:20:15;;;;;;;1.02;1.02;;;;;;;4.08;49.04;100793.44;5304518;26;33834;-87
2023/03/29 06:22:48;;;;;;;1.42;0.15;;;;;;;3.93;49.28;100785.63;5304717;26;33767;-87
2023/03/29 06:25:17;;;;;;;0.00;0.00;;;;;;;4.11;48.76;100791.72;5284783;26;34672;-86
2023/03/29 06:27:46;;;;;;;0.28;0.28;;;;;;;4.32;48.03;100798.66;5302594;26;34113;-86
2023/03/29 06:30:20;;;;;;;2.65;1.80;;;;;;;4.45;47.56;100806.47;5269700;26;32706;-89
2023/03/29 06:32:54;;;;;;;0.00;0.00;;;;;;;4.54;46.97;100793.34;5286280;26;33401;-89
2023/03/29 06:35:25;;;;;;;0.88;0.85;;;;;;;4.77;46.34;100795.88;5303799;26;33238;-85
2023/03/29 06:37:55;;;;;;;2.92;1.08;;;;;;;4.91;46.11;100790.59;5319976;26;33883;-85
2023/03/29 06:40:26;;;;;;;0.55;0.55;;;;;;;4.95;45.69;100795.81;5300895;26;34203;-85
2023/03/29 06:42:56;;;;;;;0.57;0.57;;;;;;;5.04;45.28;100792.28;5283399;26;33430;-86
2023/03/29 06:45:35;;;;;;;0.40;0.30;;;;;;;5.36;44.72;100778.97;5305376;26;34184;-86
2023/03/29 06:48:08;;;;;;;0.00;0.00;;;;;;;5.45;44.82;100780.66;5321244;26;33509;-85
2023/03/29 06:50:37;;;;;;;0.65;0.65;;;;;;;5.55;44.45;100777.09;5304153;26;33445;-86
2023/03/29 06:53:12;;;;;;;0.20;0.20;;;;;;;6.01;43.67;100776.75;5321072;26;33028;-85
2023/03/29 06:55:42;;;;;;;0.13;0.13;;;;;;;6.25;41.43;100778.25;5302927;26;33914;-85
2023/03/29 06:58:12;;;;;;;0.30;0.28;;;;;;;6.13;42.01;100780.13;5282099;26;33257;-86
2023/03/29 07:00:41;;;;;;;0.57;0.57;;;;;;;5.94;42.25;100783.81;5284522;26;32593;-83
2023/03/29 07:03:19;;;;;;;0.30;0.30;;;;;;;5.82;44.00;100789.13;5320614;26;33929;-84
2023/03/29 07:05:50;;;;;;;0.20;0.20;;;;;;;5.93;43.04;100794.28;5322479;26;33751;-83
2023/03/29 07:08:21;;;;;;;0.20;0.20;;;;;;;6.06;42.83;100798.53;5285010;26;32497;-84
2023/03/29 07:10:55;;;;;;;1.17;1.17;;;;;;;6.05;42.41;100799.44;5321749;26;33437;-84
2023/03/29 07:13:35;;;;;;;0.55;0.55;;;;;;;5.89;44.01;100810.03;5287962;26;34618;-84
2023/03/29 07:16:11;;;;;;;0.00;0.00;;;;;;;6.01;43.04;100813.44;5302685;26;32949;-84
2023/03/29 07:18:41;;;;;;;0.00;0.00;;;;;;;5.80;41.38;100815.34;5303421;26;34196;-84
2023/03/29 07:21:15;;;;;;;0.15;0.15;;;;;;;5.77;40.57;100817.13;5321570;26;33641;-83
2023/03/29 07:23:57;;;;;;;0.00;0.00;;;;;;;6.12;39.91;100815.12;5306089;26;34252;-83
2023/03/29 07:29:17;;;;;;;0.75;0.75;;;;;;;6.55;38.73;100824.28;5323240;26;33614;-83
2023/03/29 07:31:55;;;;;;;0.70;0.70;;;;;;;6.65;37.93;100823.31;5284423;26;34544;-83
2023/03/29 07:34:36;;;;;;;0.30;0.30;;;;;;;6.73;36.67;100820.56;5322900;26;34912;-83
2023/03/29 07:37:08;;;;;;;0.00;0.00;;;;;;;6.74;37.30;100817.97;5302480;26;32160;-84
2023/03/29 07:39:43;;;;;;;0.00;0.00;;;;;;;7.04;37.19;100815.84;5286164;26;33529;-84
2023/03/29 07:42:16;;;;;;;1.65;1.40;;;;;;;7.20;36.18;100817.34;5285507;27;33335;-84
2023/03/29 07:44:54;;;;;;;0.20;0.20;;;;;;;7.43;36.02;100815.28;5261294;26;34189;-84
2023/03/29 07:47:23;;;;;;;0.20;0.10;;;;;;;7.36;34.60;100811.00;5283812;26;34028;-84
2023/03/29 07:49:55;;;;;;;0.00;0.00;;;;;;;7.44;35.21;100811.75;5303442;26;34387;-84
2023/03/29 07:52:29;;;;;;;0.00;0.00;;;;;;;7.65;33.71;100822.84;5320455;26;32916;-84
2023/03/29 07:55:03;;;;;;;0.10;0.10;;;;;;;7.74;33.62;100825.34;5302857;26;33610;-84
2023/03/29 07:57:40;;;;;;;0.00;0.00;;;;;;;7.60;33.37;100816.78;5319339;26;32222;-84
2023/03/29 08:00:14;;;;;;;0.57;0.10;;;;;;;7.76;30.20;100815.66;5285028;26;32830;-84
2023/03/29 08:02:49;;;;;;;0.00;0.00;;;;;;;8.20;30.43;100814.03;5321773;26;33691;-84
2023/03/29 08:05:22;;;;;;;0.10;0.10;;;;;;;8.22;30.59;100812.25;5302655;26;33353;-84
2023/03/29 08:08:09;;;;;;;0.52;0.52;;;;;;;8.12;30.31;100821.22;5309125;26;33762;-84
2023/03/29 08:10:41;;;;;;;0.00;0.00;;;;;;;7.76;31.40;100818.28;5303000;26;33432;-84
2023/03/29 08:13:22;;;;;;;0.08;0.08;;;;;;;7.98;31.03;100816.19;5286102;26;33093;-83
2023/03/29 08:15:55;;;;;;;0.00;0.00;;;;;;;8.42;31.18;100811.91;5304152;26;34032;-84
2023/03/29 08:18:25;;;;;;;0.00;0.00;;;;;;;8.77;30.36;100813.84;5284024;26;33403;-84
2023/03/29 08:23:37;;;;;;;0.05;0.05;;;;;;;8.40;31.53;100814.59;5304793;26;33753;-84
2023/03/29 08:26:08;;;;;;;0.00;0.00;;;;;;;8.86;31.03;100800.50;5302764;26;33823;-84
2023/03/29 08:28:46;;;;;;;1.75;0.62;;;;;;;8.77;30.88;100811.22;5303232;26;33440;-84
2023/03/29 08:31:17;;;;;;;0.00;0.00;;;;;;;8.70;29.20;100807.00;5319699;26;32447;-85
2023/03/29 08:33:47;;;;;;;0.65;0.65;;;;;;;8.78;30.05;100798.91;5302641;26;33762;-84
2023/03/29 08:36:19;;;;;;;0.00;0.00;;;;;;;9.19;30.32;100806.81;5320875;26;34726;-84
2023/03/29 08:38:54;;;;;;;1.27;0.80;;;;;;;9.06;30.73;100801.84;5321449;26;33390;-84
2023/03/29 08:41:49;;;;;;;0.43;0.43;;;;;;;8.90;28.68;100796.03;5319945;26;33826;-84
2023/03/29 08:44:44;;;;;;;0.00;0.00;;;;;;;9.30;29.59;100800.44;5301804;26;32760;-84
2023/03/29 08:47:53;;;;;;;0.00;0.00;;;;;;;8.69;29.02;100797.38;5319104;26;33387;-84
2023/03/29 08:53:16;;;;;;;0.00;0.00;;;;;;;9.42;31.10;100785.22;5321787;26;33238;-84
2023/03/29 08:55:52;;;;;;;1.95;1.23;;;;;;;9.24;30.79;100789.13;5303265;26;34548;-84
2023/03/29 08:58:30;;;;;;;0.30;0.15;;;;;;;10.22;31.15;100777.97;5283815;26;33200;-83
2023/03/29 09:01:08;;;;;;;0.00;0.00;;;;;;;10.34;30.51;100772.37;5303868;26;34158;-84
2023/03/29 09:04:02;;;;;;;0.40;0.40;;;;;;;10.14;30.54;100772.00;5304806;26;33473;-84
2023/03/29 09:06:34;;;;;;;0.62;0.35;;;;;;;10.30;29.56;100764.56;5300800;26;33812;-83
2023/03/29 09:09:11;;;;;;;;;;;;;;;9.54;29.85;100764.72;5320942;26;33743;-84
2023/03/29 09:12:17;;;;;;;0.20;0.20;;;;;;;9.88;30.46;100762.16;5320880;26;33290;-84
2023/03/29 09:14:49;;;;;;;0.00;0.00;;;;;;;10.50;29.30;100752.56;5301566;26;32553;-84
2023/03/29 09:17:33;;;;;;;0.00;0.00;;;;;;;10.39;29.25;100756.41;5340016;26;34655;-84
2023/03/29 09:20:21;;;;;;;0.00;0.00;;;;;;;10.44;30.33;100750.13;5319134;26;33177;-84
2023/03/29 09:23:34;;;;;;;0.10;0.10;;;;;;;10.97;29.28;100742.41;5302647;26;33361;-84
2023/03/29 09:26:27;;;;;;;0.00;0.00;;;;;;;10.89;28.37;100741.75;5296741;26;34198;-84
2023/03/29 09:29:22;;;;;;;0.17;0.17;;;;;;;10.80;28.71;100742.03;5302178;26;33774;-83
2023/03/29 09:31:53;;;;;;;0.47;0.43;;;;;;;11.25;27.85;100731.84;5339459;26;33685;-83
2023/03/29 09:34:40;;;;;;;0.28;0.28;;;;;;;10.69;29.70;100738.84;5301875;26;33759;-84
2023/03/29 09:37:24;;;;;;;0.10;0.10;;;;;;;10.96;27.52;100732.72;5319712;26;33611;-83
2023/03/29 09:40:04;;;;;;;0.55;0.37;;;;;;;10.99;28.02;100737.91;5283247;26;33885;-83
2023/03/29 09:42:36;;;;;;;0.00;0.00;;;;;;;10.93;28.92;100738.13;5282138;26;33569;-84
2023/03/29 09:45:07;;;;;;;0.40;0.22;;;;;;;10.80;27.49;100722.66;5301840;26;32977;-83
2023/03/29 09:47:55;;;;;;;0.00;0.00;;;;;;;11.31;27.35;100729.91;5319943;26;33893;-84
2023/03/29 09:50:38;;;;;;;0.00;0.00;;;;;;;11.49;27.86;100727.53;5284518;26;34392;-84
2023/03/29 09:53:09;;;;;;;0.00;0.00;;;;;;;10.80;26.93;100723.53;5283878;26;32940;-84
2023/03/29 09:55:39;;;;;;;0.00;0.00;;;;;;;11.31;27.10;100722.84;5283361;26;32416;-84
2023/03/29 10:01:04;;;;;;;0.00;0.00;;;;;;;11.37;28.74;100716.47;5322480;26;35135;-84
2023/03/29 10:03:34;;;;;;;0.00;0.00;;;;;;;11.07;28.38;100715.69;5285238;26;32832;-84
2023/03/29 10:06:08;;;;;;;0.00;0.00;;;;;;;10.65;30.26;100714.28;5267514;26;32526;-84
2023/03/29 10:08:50;;;;;;;0.00;0.00;;;;;;;10.84;30.35;100709.31;5303834;26;34687;-84
2023/03/29 10:11:27;;;;;;;0.00;0.00;;;;;;;11.25;29.87;100693.94;5303142;26;33754;-84
2023/03/29 10:14:11;;;;;;;0.10;0.10;;;;;;;11.86;28.47;100691.91;5302888;26;34380;-85
2023/03/29 10:16:55;;;;;;;0.00;0.00;;;;;;;11.99;27.93;100687.94;5297306;26;34181;-85
2023/03/29 10:19:29;;;;;;;0.00;0.00;;;;;;;10.99;29.47;100698.28;5302890;26;35049;-86
2023/03/29 10:22:00;;;;;;;0.10;0.10;;;;;;;11.03;30.25;100692.00;5302355;26;32327;-85
2023/03/29 10:24:34;;;;;;;0.20;0.20;;;;;;;11.57;29.62;100692.03;5304639;26;34012;-85
2023/03/29 10:27:06;;;;;;;0.70;0.40;;;;;;;11.79;28.83;100685.09;5321155;26;32436;-85
2023/03/29 10:29:42;;;;;;;0.10;0.10;;;;;;;11.96;28.81;100685.41;5286942;26;33662;-85
2023/03/29 10:32:30;;;;;;;4.72;0.95;;;;;;;12.07;28.58;100679.72;5303101;26;33806;-85
2023/03/29 10:35:12;;;;;;;0.22;0.22;;;;;;;12.26;29.11;100674.63;5321306;26;33811;-85
2023/03/29 10:37:49;;;;;;;0.10;0.10;;;;;;;12.34;28.52;100672.53;5284281;26;32188;-85
2023/03/29 10:40:32;;;;;;;0.47;0.22;;;;;;;12.27;29.31;100671.06;5302595;26;32546;-86
2023/03/29 10:43:14;;;;;;;0.05;0.05;;;;;;;12.59;28.82;100666.34;5303772;26;33279;-85
2023/03/29 10:45:48;;;;;;;0.00;0.00;;;;;;;12.79;27.88;100663.78;5300796;26;32780;-85
2023/03/29 10:48:23;;;;;;;0.32;0.25;;;;;;;13.22;26.09;100657.66;5339337;26;34043;-85
2023/03/29 10:50:57;;;;;;;0.00;0.00;;;;;;;13.21;28.05;100655.91;5301591;26;32510;-85
2023/03/29 10:53:34;;;;;;;0.00;0.00;;;;;;;13.53;28.08;100653.72;5303569;26;34095;-86
2023/03/29 10:56:23;;;;;;;;;;;;;;;13.33;27.40;100659.88;5305028;26;33253;-85
2023/03/29 10:59:18;;;;;;;0.08;0.08;;;;;;;13.52;27.24;100658.16;5342857;26;34317;-85
2023/03/29 11:02:21;;;;;;;0.50;0.50;;;;;;;13.76;26.57;100640.31;5305145;26;32327;-85
2023/03/29 11:05:13;;;;;;;2.10;1.00;;;;;;;13.39;26.15;100650.78;5306063;26;34040;-86
2023/03/29 11:07:59;;;;;;;0.00;0.00;;;;;;;12.73;27.17;100645.47;5323349;26;33215;-86
2023/03/29 11:10:37;;;;;;;0.10;0.10;;;;;;;12.77;27.03;100641.75;5286918;26;32314;-85
2023/03/29 11:13:27;;;;;;;0.75;0.75;;;;;;;13.00;28.50;100646.16;5305308;26;33126;-86
2023/03/29 11:16:18;;;;;;;0.57;0.57;;;;;;;13.32;28.15;100635.12;5321866;26;33945;-85
2023/03/29 11:19:00;;;;;;;0.37;0.37;;;;;;;13.24;27.80;100636.38;5301910;26;34325;-84
2023/03/29 11:22:06;;;;;;;0.30;0.30;;;;;;;13.46;27.14;100633.69;5301932;26;33721;-85
2023/03/29 11:24:53;;;;;;;0.00;0.00;;;;;;;13.43;27.81;100634.66;5319203;26;34133;-84
2023/03/29 11:28:00;;;;;;;0.40;0.40;;;;;;;13.63;26.49;100630.34;5316774;26;32600;-85
2023/03/29 11:30:40;;;;;;;0.00;0.00;;;;;;;13.24;27.35;100636.38;5319755;26;33542;-85
2023/03/29 11:33:50;;;;;;;0.00;0.00;;;;;;;14.02;26.03;100620.59;5302264;26;32603;-85
2023/03/29 11:37:06;;;;;;;0.17;0.17;;;;;;;14.85;25.57;100611.44;5312689;26;35527;-84
2023/03/29 11:39:42;;;;;;;0.05;0.05;;;;;;;13.93;25.00;100607.75;5301050;26;34342;-86
2023/03/29 11:42:23;;;;;;;0.10;0.10;;;;;;;12.51;27.61;100611.84;5338005;26;34126;-85
2023/03/29 11:44:56;;;;;;;0.00;0.00;;;;;;;12.91;27.81;100602.31;5301990;26;33617;-87
2023/03/29 11:47:32;;;;;;;0.75;0.62;;;;;;;13.02;28.65;100613.37;5305153;26;33669;-88
2023/03/29 11:50:22;;;;;;;0.82;0.82;;;;;;;13.25;27.44;100609.81;5303327;26;34634;-88
2023/03/29 11:53:08;;;;;;;3.10;0.37;;;;;;;13.67;28.08;100605.38;5302549;26;33564;-88
2023/03/29 11:55:40;;;;;;;0.35;0.22;;;;;;;13.50;27.18;100599.00;5303522;26;32938;-88
2023/03/29 11:58:18;;;;;;;3.37;0.70;;;;;;;14.26;26.13;100588.56;5304072;26;33393;-88
2023/03/29 12:00:54;;;;;;;0.00;0.00;;;;;;;14.24;27.73;100585.97;5303089;26;34556;-88
2023/03/29 12:03:43;;;;;;;0.00;0.00;;;;;;;14.18;27.87;100583.59;5305326;26;34554;-88
2023/03/29 12:06:30;;;;;;;0.00;0.00;;;;;;;14.23;27.11;100581.56;5287090;26;34094;-88
2023/03/29 12:09:39;;;;;;;0.30;0.30;;;;;;;13.87;27.11;100581.47;5284220;26;33157;-89
2023/03/29 12:12:26;;;;;;;0.40;0.30;;;;;;;14.33;27.40;100576.69;5319880;26;33154;-87
2023/03/29 12:15:06;;;;;;;0.37;0.37;;;;;;;14.34;26.50;100568.66;5302530;26;32752;-88
2023/03/29 12:17:46;;;;;;;0.50;0.50;;;;;;;14.22;27.47;100566.56;5302589;26;34237;-88
2023/03/29 12:20:22;;;;;;;0.40;0.40;;;;;;;14.35;28.23;100561.56;5284092;26;33055;-88
2023/03/29 12:22:58;;;;;;;0.75;0.57;;;;;;;13.75;28.75;100563.44;5284533;26;32999;-89
2023/03/29 12:25:33;;;;;;;0.35;0.35;;;;;;;13.50;29.67;100556.56;5321843;26;33588;-88